Time;durP1;ratioP1;P1;durP2;ratioP2;P2;SDS_P1;SDS_P2;PMS_P1;PMS_P2;Temp;Humidity;BMP_temperature;BMP_pressure;BME280_temperature;BME280_humidity;BME280_pressure;Samples;Min_cycle;Max_cycle;Signal;HPM_P1;HPM_P2
2022/06/04 00:01:36;117565.00;0.39;203.88;0.00;0.00;0.62;;;;;22.20;1.00;;;;;;2284308;60;1098;-86
2022/06/04 00:04:04;35182.00;0.12;61.55;0.00;0.00;0.62;;;;;22.00;1.00;;;;;;2284388;60;1135;-86
2022/06/04 00:06:31;65701.00;0.22;114.33;148.00;0.00;0.88;;;;;22.00;1.00;;;;;;2284403;60;1290;-85
2022/06/04 00:08:58;18394.00;0.06;32.49;0.00;0.00;0.62;;;;;22.00;1.00;;;;;;2284374;60;1086;-86
2022/06/04 00:16:56;0.00;0.00;0.62;0.00;0.00;0.62;;;;;22.00;1.00;;;;;;2284540;60;730;-85
2022/06/04 00:19:23;195415.00;0.65;338.03;52453.00;0.17;91.43;;;;;21.80;1.00;;;;;;2284358;60;1054;-85
2022/06/04 00:21:50;0.00;0.00;0.62;0.00;0.00;0.62;;;;;21.70;1.00;;;;;;2284495;60;1133;-86
2022/06/04 00:24:18;39512.00;0.13;69.04;0.00;0.00;0.62;;;;;21.70;1.00;;;;;;2284333;60;1339;-85
2022/06/04 00:26:46;38044.00;0.13;66.50;0.00;0.00;0.62;;;;;21.70;1.00;;;;;;2284231;61;1090;-84
2022/06/04 00:29:13;33334.00;0.11;58.35;0.00;0.00;0.62;;;;;21.80;1.00;;;;;;2284445;60;1015;-85
2022/06/04 00:31:40;25979.00;0.09;45.62;0.00;0.00;0.62;;;;;21.80;1.00;;;;;;2284333;60;1044;-85
2022/06/04 00:34:08;155139.00;0.52;268.66;48193.00;0.16;84.06;;;;;21.80;1.00;;;;;;2284298;60;2036;-86
2022/06/04 00:36:35;138014.00;0.46;239.15;30237.00;0.10;52.99;;;;;21.70;1.00;;;;;;2284323;60;1221;-87
2022/06/04 00:39:02;0.00;0.00;0.62;0.00;0.00;0.62;;;;;21.70;1.00;;;;;;2284396;60;1153;-85
2022/06/04 00:41:39;12653.00;0.04;22.55;0.00;0.00;0.62;;;;;21.60;1.00;;;;;;2284378;60;1155;-86
2022/06/04 00:44:46;50121.00;0.17;87.40;0.00;0.00;0.62;;;;;21.70;1.00;;;;;;2284474;60;1148;-86
2022/06/04 00:47:23;204348.00;0.68;353.41;65821.00;0.22;114.54;;;;;21.90;1.00;;;;;;2284407;60;1130;-85
2022/06/04 00:49:50;0.00;0.00;0.62;0.00;0.00;0.62;;;;;21.80;1.00;;;;;;2284331;60;1109;-86
2022/06/04 00:52:17;0.00;0.00;0.62;0.00;0.00;0.62;;;;;21.80;1.00;;;;;;2284223;60;1110;-87
2022/06/04 00:54:48;0.00;0.00;0.62;0.00;0.00;0.62;;;;;21.80;1.00;;;;;;2284277;60;2005;-86
2022/06/04 00:57:31;76656.00;0.26;133.26;0.00;0.00;0.62;;;;;21.80;1.00;;;;;;2284451;60;1078;-87
2022/06/04 01:00:07;0.00;0.00;0.62;0.00;0.00;0.62;;;;;21.70;1.00;;;;;;2284248;60;1083;-85
2022/06/04 01:02:49;118011.00;0.39;204.65;0.00;0.00;0.62;;;;;21.50;1.00;;;;;;2284245;60;1098;-84
2022/06/04 01:05:30;0.00;0.00;0.62;0.00;0.00;0.62;;;;;21.40;1.00;;;;;;2284176;60;1486;-85
2022/06/04 01:08:33;405854.00;1.35;699.87;37394.00;0.12;65.38;;;;;21.40;1.00;;;;;;2284299;60;1207;-86
2022/06/04 01:11:13;0.00;0.00;0.62;0.00;0.00;0.62;;;;;21.40;1.00;;;;;;2280875;60;1220;-85
2022/06/04 01:13:57;37091.00;0.12;64.86;0.00;0.00;0.62;;;;;21.30;1.00;;;;;;2284138;60;1105;-85
2022/06/04 01:16:36;42426.00;0.14;74.09;0.00;0.00;0.62;;;;;21.20;1.00;;;;;;2284204;60;1413;-85
2022/06/04 01:19:24;0.00;0.00;0.62;0.00;0.00;0.62;;;;;21.20;1.00;;;;;;2284236;60;1539;-85
2022/06/04 01:22:08;0.00;0.00;0.62;0.00;0.00;0.62;;;;;21.20;1.00;;;;;;2284247;60;1112;-86
2022/06/04 01:25:01;79450.00;0.26;138.09;0.00;0.00;0.62;;;;;21.20;1.00;;;;;;2284354;60;1384;-86
2022/06/04 01:27:35;138521.00;0.46;240.02;19529.00;0.07;34.45;;;;;21.20;1.00;;;;;;2284266;60;1110;-86
2022/06/04 01:30:09;46087.00;0.15;80.42;0.00;0.00;0.62;;;;;21.30;1.00;;;;;;2284197;60;1155;-85
2022/06/04 01:32:41;0.00;0.00;0.62;0.00;0.00;0.62;;;;;21.20;1.00;;;;;;2284282;60;1206;-87
2022/06/04 01:35:14;131440.00;0.44;227.81;0.00;0.00;0.62;;;;;21.20;1.00;;;;;;2284205;60;2024;-84
2022/06/04 01:37:50;347163.00;1.16;598.99;46187.00;0.15;80.59;;;;;21.20;1.00;;;;;;2284416;60;1124;-86
2022/06/04 01:43:13;13392.00;0.04;23.83;0.00;0.00;0.62;;;;;21.20;1.00;;;;;;2284321;60;748;-85
2022/06/04 01:45:43;37972.00;0.13;66.38;0.00;0.00;0.62;;;;;21.00;1.00;;;;;;2284136;60;1340;-86
2022/06/04 01:48:13;0.00;0.00;0.62;0.00;0.00;0.62;;;;;21.00;1.00;;;;;;2284220;60;1146;-85
2022/06/04 01:50:47;258532.00;0.86;446.62;31491.00;0.10;55.16;;;;;20.90;1.00;;;;;;2284240;60;1137;-86
2022/06/04 01:53:19;54348.00;0.18;94.71;0.00;0.00;0.62;;;;;21.00;1.00;;;;;;2284081;60;1151;-85
2022/06/04 01:55:53;27359.00;0.09;48.01;0.00;0.00;0.62;;;;;21.00;1.00;;;;;;2284101;60;1919;-85
2022/06/04 01:58:28;47842.00;0.16;83.45;0.00;0.00;0.62;;;;;21.00;1.00;;;;;;2284030;60;1127;-86
2022/06/04 02:00:59;0.00;0.00;0.62;0.00;0.00;0.62;;;;;21.00;1.00;;;;;;2283948;60;1173;-87
2022/06/04 02:03:34;70545.00;0.24;122.70;0.00;0.00;0.62;;;;;21.20;1.00;;;;;;2283986;61;1484;-86
2022/06/04 02:06:08;50063.00;0.17;87.30;0.00;0.00;0.62;;;;;21.00;1.00;;;;;;2284146;60;1465;-89
2022/06/04 02:08:42;297399.00;0.99;513.45;36372.00;0.12;63.61;;;;;21.00;1.00;;;;;;2283870;60;1357;-86
2022/06/04 02:11:13;243535.00;0.81;420.83;0.00;0.00;0.62;;;;;21.00;1.00;;;;;;2284185;60;1078;-87
2022/06/04 02:13:43;0.00;0.00;0.62;0.00;0.00;0.62;;;;;21.10;1.00;;;;;;2284134;60;1438;-86
2022/06/04 02:16:19;35165.00;0.12;61.52;0.00;0.00;0.62;;;;;21.00;1.00;;;;;;2284340;60;2010;-85
2022/06/04 02:18:46;105568.00;0.35;183.18;15591.00;0.05;27.63;;;;;20.90;1.00;;;;;;2284915;60;1086;-85
2022/06/04 02:21:14;87775.00;0.29;152.47;0.00;0.00;0.62;;;;;20.70;1.00;;;;;;2284876;60;1051;-86
2022/06/04 02:23:41;42322.00;0.14;73.91;0.00;0.00;0.62;;;;;20.60;1.00;;;;;;2284850;60;1180;-84
2022/06/04 02:26:08;53421.00;0.18;93.10;0.00;0.00;0.62;;;;;20.70;1.00;;;;;;2284678;60;1395;-86
2022/06/04 02:28:36;30303.00;0.10;53.11;0.00;0.00;0.62;;;;;20.80;1.00;;;;;;2284754;60;994;-86
2022/06/04 02:31:10;48516.00;0.16;84.62;0.00;0.00;0.62;;;;;20.80;1.00;;;;;;2284853;60;1227;-86
2022/06/04 02:33:46;72735.00;0.24;126.49;0.00;0.00;0.62;;;;;20.70;1.00;;;;;;2284860;60;1076;-85
2022/06/04 02:36:22;126358.00;0.42;219.05;0.00;0.00;0.62;;;;;20.50;1.00;;;;;;2284641;60;1927;-85
2022/06/04 02:39:00;40361.00;0.13;70.51;0.00;0.00;0.62;;;;;20.30;1.00;;;;;;2284755;60;1010;-86
2022/06/04 02:41:32;32664.00;0.11;57.19;0.00;0.00;0.62;;;;;20.40;1.00;;;;;;2284691;60;1109;-87
2022/06/04 02:44:08;130013.00;0.43;225.35;0.00;0.00;0.62;;;;;20.30;1.00;;;;;;2284745;60;1688;-86
2022/06/04 02:46:44;60839.00;0.20;105.93;0.00;0.00;0.62;;;;;20.40;1.00;;;;;;2284582;60;1527;-86
2022/06/04 02:49:17;474455.00;1.58;817.86;18490.00;0.06;32.66;;;;;20.50;1.00;;;;;;2284847;60;1064;-85
2022/06/04 02:51:46;155999.00;0.52;270.15;0.00;0.00;0.62;;;;;20.40;1.00;;;;;;2284738;60;1080;-85
2022/06/04 02:54:18;23859.00;0.08;41.95;0.00;0.00;0.62;;;;;20.50;1.00;;;;;;2284593;60;1078;-86
2022/06/04 02:56:47;37320.00;0.12;65.25;0.00;0.00;0.62;;;;;20.40;1.00;;;;;;2284649;60;1690;-85
2022/06/04 02:59:18;0.00;0.00;0.62;0.00;0.00;0.62;;;;;20.30;1.00;;;;;;2284718;60;1124;-86
2022/06/04 03:01:51;22520.00;0.08;39.63;0.00;0.00;0.62;;;;;20.40;1.00;;;;;;2284652;60;1122;-86
2022/06/04 03:04:19;32267.00;0.11;56.51;0.00;0.00;0.62;;;;;20.50;1.00;;;;;;2284777;60;1407;-85
2022/06/04 03:06:46;0.00;0.00;0.62;0.00;0.00;0.62;;;;;20.50;1.00;;;;;;2284597;60;2027;-86
2022/06/04 03:09:16;161479.00;0.54;279.59;0.00;0.00;0.62;;;;;20.80;1.00;;;;;;2284808;60;1115;-87
2022/06/04 03:11:46;31174.00;0.10;54.62;0.00;0.00;0.62;;;;;20.70;1.00;;;;;;2284738;60;1096;-86
2022/06/04 03:14:14;1104.00;0.00;2.53;0.00;0.00;0.62;;;;;20.70;1.00;;;;;;2284743;60;1731;-86
2022/06/04 03:16:44;0.00;0.00;0.62;0.00;0.00;0.62;;;;;20.70;1.00;;;;;;2284758;60;1926;-88
2022/06/04 03:19:12;99108.00;0.33;172.03;0.00;0.00;0.62;;;;;20.80;1.00;;;;;;2284672;60;2207;-86
2022/06/04 03:21:41;48033.00;0.16;83.78;0.00;0.00;0.62;;;;;20.80;1.00;;;;;;2284818;60;1202;-88
2022/06/04 03:24:10;0.00;0.00;0.62;0.00;0.00;0.62;;;;;20.90;1.00;;;;;;2284778;60;1063;-85
2022/06/04 03:26:38;198371.00;0.66;343.12;0.00;0.00;0.62;;;;;20.90;1.00;;;;;;2284595;60;1274;-86
2022/06/04 03:29:05;0.00;0.00;0.62;0.00;0.00;0.62;;;;;20.90;1.00;;;;;;2284637;60;1110;-85
2022/06/04 03:31:32;33587.00;0.11;58.79;0.00;0.00;0.62;;;;;20.80;1.00;;;;;;2284728;60;1030;-88
2022/06/04 03:33:59;148218.00;0.49;256.74;31810.00;0.11;55.72;;;;;20.60;1.00;;;;;;2284549;60;1082;-86
2022/06/04 03:36:28;83667.00;0.28;145.37;0.00;0.00;0.62;;;;;20.50;1.00;;;;;;2284366;60;2020;-86
2022/06/04 03:38:56;136227.00;0.45;236.07;0.00;0.00;0.62;;;;;20.70;1.00;;;;;;2284549;60;1007;-85
2022/06/04 03:41:24;0.00;0.00;0.62;0.00;0.00;0.62;;;;;20.70;1.00;;;;;;2284425;60;1123;-86
2022/06/04 03:43:52;0.00;0.00;0.62;0.00;0.00;0.62;;;;;20.60;1.00;;;;;;2284480;60;1083;-85
2022/06/04 03:46:19;120782.00;0.40;209.43;0.00;0.00;0.62;;;;;21.00;1.00;;;;;;2284386;60;1406;-85
2022/06/04 03:48:46;0.00;0.00;0.62;0.00;0.00;0.62;;;;;21.10;1.00;;;;;;2284466;60;1162;-85
2022/06/04 03:51:13;70299.00;0.23;122.28;0.00;0.00;0.62;;;;;21.20;1.00;;;;;;2284356;60;1089;-86
2022/06/04 03:53:41;48036.00;0.16;83.79;0.00;0.00;0.62;;;;;21.00;1.00;;;;;;2284421;60;1119;-86
2022/06/04 03:56:08;16112.00;0.05;28.54;0.00;0.00;0.62;;;;;21.20;1.00;;;;;;2284314;61;2020;-85
2022/06/04 03:58:34;0.00;0.00;0.62;0.00;0.00;0.62;;;;;21.40;1.00;;;;;;2284456;61;1187;-85
2022/06/04 04:01:12;72485.00;0.24;126.05;0.00;0.00;0.62;;;;;21.50;1.00;;;;;;2284381;60;1362;-86
2022/06/04 04:03:38;307937.00;1.03;531.56;79220.00;0.26;137.69;;;;;21.70;1.00;;;;;;2284345;61;1159;-85
2022/06/04 04:06:05;51404.00;0.17;89.61;0.00;0.00;0.62;;;;;21.60;1.00;;;;;;2284310;61;1449;-86
2022/06/04 04:08:32;39823.00;0.13;69.58;0.00;0.00;0.62;;;;;21.70;1.00;;;;;;2284326;60;1107;-86
2022/06/04 04:11:00;126208.00;0.42;218.79;60116.00;0.20;104.68;;;;;21.90;1.00;;;;;;2284364;60;1084;-87
2022/06/04 04:13:27;162094.00;0.54;280.65;0.00;0.00;0.62;;;;;21.60;1.00;;;;;;2284496;60;1098;-86
2022/06/04 04:15:56;48059.00;0.16;83.83;0.00;0.00;0.62;;;;;21.60;1.00;;;;;;2284181;60;1917;-86
2022/06/04 04:18:23;62970.00;0.21;109.61;0.00;0.00;0.62;;;;;21.70;1.00;;;;;;2284426;60;1012;-87
2022/06/04 04:20:49;206488.00;0.69;357.09;0.00;0.00;0.62;;;;;21.60;1.00;;;;;;2284324;60;1096;-85
2022/06/04 04:23:17;162819.00;0.54;281.90;4561.00;0.02;8.52;;;;;21.70;1.00;;;;;;2284251;60;1143;-85
2022/06/04 04:25:44;0.00;0.00;0.62;0.00;0.00;0.62;;;;;21.70;1.00;;;;;;2284146;60;1397;-87
2022/06/04 04:28:12;0.00;0.00;0.62;0.00;0.00;0.62;;;;;21.80;1.00;;;;;;2284358;60;1166;-85
2022/06/04 04:30:39;56013.00;0.19;97.58;0.00;0.00;0.62;;;;;22.00;1.00;;;;;;2284186;61;1066;-85
2022/06/04 04:33:07;0.00;0.00;0.62;0.00;0.00;0.62;;;;;22.20;1.00;;;;;;2284092;60;1129;-86
2022/06/04 04:35:36;91737.00;0.31;159.31;0.00;0.00;0.62;;;;;22.20;1.00;;;;;;2284148;60;2160;-85
2022/06/04 04:38:04;0.00;0.00;0.62;0.00;0.00;0.62;;;;;22.20;1.00;;;;;;2284372;61;1017;-86
2022/06/04 04:40:32;0.00;0.00;0.62;0.00;0.00;0.62;;;;;22.10;1.00;;;;;;2284258;60;1088;-86
2022/06/04 04:43:00;100730.00;0.34;174.83;0.00;0.00;0.62;;;;;22.10;1.00;;;;;;2284195;61;1167;-85
2022/06/04 04:45:29;0.00;0.00;0.62;0.00;0.00;0.62;;;;;22.30;1.00;;;;;;2284164;60;1367;-86
2022/06/04 04:47:56;0.00;0.00;0.62;0.00;0.00;0.62;;;;;22.30;1.00;;;;;;2284260;60;1042;-85
2022/06/04 04:50:28;67757.00;0.23;117.88;0.00;0.00;0.62;;;;;22.70;1.00;;;;;;2284270;61;1100;-85
2022/06/04 04:52:57;0.00;0.00;0.62;0.00;0.00;0.62;;;;;22.80;1.00;;;;;;2284186;60;1057;-85
2022/06/04 04:55:24;24949.00;0.08;43.84;0.00;0.00;0.62;;;;;22.80;1.00;;;;;;2284028;61;1936;-84
2022/06/04 04:57:51;0.00;0.00;0.62;0.00;0.00;0.62;;;;;22.60;1.00;;;;;;2284387;60;1078;-86
2022/06/04 05:00:19;0.00;0.00;0.62;0.00;0.00;0.62;;;;;22.50;1.00;;;;;;2284225;61;1159;-86
2022/06/04 05:02:47;86462.00;0.29;150.20;0.00;0.00;0.62;;;;;22.50;1.00;;;;;;2284198;60;1086;-85
2022/06/04 05:05:15;68919.00;0.23;119.89;0.00;0.00;0.62;;;;;22.50;1.00;;;;;;2284314;60;1394;-87
2022/06/04 05:07:43;0.00;0.00;0.62;0.00;0.00;0.62;;;;;22.50;1.00;;;;;;2284306;60;1123;-86
2022/06/04 05:10:12;32602.00;0.11;57.09;0.00;0.00;0.62;;;;;22.40;1.00;;;;;;2284120;60;1337;-88
2022/06/04 05:12:39;412641.00;1.38;711.54;25574.00;0.09;44.92;;;;;22.50;1.00;;;;;;2280238;61;1109;-84
2022/06/04 05:15:06;120592.00;0.40;209.10;0.00;0.00;0.62;;;;;22.60;1.00;;;;;;2280256;61;1911;-85
2022/06/04 05:17:34;243437.00;0.81;420.66;49974.00;0.17;87.14;;;;;22.60;1.00;;;;;;2280115;61;941;-87
2022/06/04 05:20:03;35307.00;0.12;61.77;0.00;0.00;0.62;;;;;22.70;1.00;;;;;;2280059;61;1184;-87
2022/06/04 05:22:30;341450.00;1.14;589.17;52249.00;0.17;91.08;;;;;22.40;1.00;;;;;;2280062;61;2318;-86
2022/06/04 05:24:57;0.00;0.00;0.62;0.00;0.00;0.62;;;;;22.10;1.00;;;;;;2280124;61;1397;-85
2022/06/04 05:27:24;70546.00;0.24;122.70;0.00;0.00;0.62;;;;;21.70;1.00;;;;;;2280201;61;1031;-86
2022/06/04 05:29:50;68163.00;0.23;118.59;0.00;0.00;0.62;;;;;21.30;1.00;;;;;;2280126;61;2086;-86
2022/06/04 05:32:17;11251.00;0.04;20.12;0.00;0.00;0.62;;;;;21.50;1.00;;;;;;2280055;61;1137;-86
2022/06/04 05:34:44;238663.00;0.80;412.45;27317.00;0.09;47.94;;;;;21.70;1.00;;;;;;2280104;61;1410;-85
2022/06/04 05:37:13;69799.00;0.23;121.41;0.00;0.00;0.62;;;;;21.90;1.00;;;;;;2279961;61;2011;-85
2022/06/04 05:39:40;41288.00;0.14;72.12;0.00;0.00;0.62;;;;;21.30;1.00;;;;;;2280066;61;946;-84
2022/06/04 05:42:07;0.00;0.00;0.62;0.00;0.00;0.62;;;;;21.10;1.00;;;;;;2279721;61;1094;-84
2022/06/04 05:44:34;73620.00;0.25;128.02;0.00;0.00;0.62;;;;;20.70;1.00;;;;;;2280087;61;1679;-85
2022/06/04 05:47:04;67802.00;0.23;117.96;0.00;0.00;0.62;;;;;20.60;1.60;;;;;;2280179;61;1137;-81
2022/06/04 05:49:32;1777.00;0.01;3.70;0.00;0.00;0.62;;;;;20.80;1.00;;;;;;2280220;61;1118;-83
2022/06/04 05:51:58;117827.00;0.39;204.33;0.00;0.00;0.62;;;;;20.80;1.30;;;;;;2280631;61;1153;-85
2022/06/04 05:54:27;10028.00;0.03;18.00;0.00;0.00;0.62;;;;;20.90;1.00;;;;;;2280790;61;1281;-84
2022/06/04 05:56:54;35625.00;0.12;62.32;0.00;0.00;0.62;;;;;21.00;1.10;;;;;;2280609;61;1926;-84
2022/06/04 05:59:23;110802.00;0.37;192.21;0.00;0.00;0.62;;;;;21.40;1.00;;;;;;2280820;61;2198;-84
2022/06/04 06:01:51;41687.00;0.14;72.81;0.00;0.00;0.62;;;;;21.70;1.00;;;;;;2280907;61;1033;-86
2022/06/04 06:04:20;236837.00;0.79;409.31;39472.00;0.13;68.97;;;;;21.80;1.00;;;;;;2280584;61;1292;-84
2022/06/04 06:06:50;196483.00;0.65;339.87;23136.00;0.08;40.70;;;;;22.00;1.00;;;;;;2280819;61;1147;-84
2022/06/04 06:09:19;106180.00;0.35;184.24;40005.00;0.13;69.90;;;;;21.50;1.00;;;;;;2280538;61;1143;-84
2022/06/04 06:11:49;0.00;0.00;0.62;0.00;0.00;0.62;;;;;21.20;2.20;;;;;;2280615;61;1610;-84
2022/06/04 06:14:16;1782.00;0.01;3.71;0.00;0.00;0.62;;;;;21.30;2.90;;;;;;2280803;61;1383;-83
2022/06/04 06:16:46;0.00;0.00;0.62;0.00;0.00;0.62;;;;;21.70;2.50;;;;;;2280801;61;2010;-82
2022/06/04 06:19:14;0.00;0.00;0.62;0.00;0.00;0.62;;;;;21.90;1.30;;;;;;2280492;61;1157;-83
2022/06/04 06:21:42;0.00;0.00;0.62;0.00;0.00;0.62;;;;;22.10;1.20;;;;;;2280384;61;1153;-84
2022/06/04 06:24:11;59542.00;0.20;103.69;0.00;0.00;0.62;;;;;22.20;1.20;;;;;;2280346;61;1151;-85
2022/06/04 06:26:44;28647.00;0.10;50.24;0.00;0.00;0.62;;;;;22.40;1.00;;;;;;2280401;61;1309;-85
2022/06/04 06:29:15;98744.00;0.33;171.40;0.00;0.00;0.62;;;;;22.50;1.40;;;;;;2280308;61;1195;-84
2022/06/04 06:31:42;0.00;0.00;0.62;0.00;0.00;0.62;;;;;22.60;1.00;;;;;;2279994;61;1164;-85
2022/06/04 06:34:10;66068.00;0.22;114.97;0.00;0.00;0.62;;;;;22.70;1.00;;;;;;2279748;61;1108;-84
2022/06/04 06:36:40;255460.00;0.85;441.34;221.00;0.00;1.00;;;;;22.70;1.00;;;;;;2279135;61;2020;-84
2022/06/04 06:39:07;28511.00;0.10;50.01;0.00;0.00;0.62;;;;;22.70;1.00;;;;;;2279829;61;1556;-84
2022/06/04 06:41:35;130718.00;0.44;226.57;0.00;0.00;0.62;;;;;22.60;1.00;;;;;;2279538;61;1485;-85
2022/06/04 06:44:03;220836.00;0.74;381.78;0.00;0.00;0.62;;;;;22.60;1.00;;;;;;2278459;61;1104;-85
2022/06/04 06:46:35;189009.00;0.63;327.00;20169.00;0.07;35.56;;;;;22.30;1.00;;;;;;2278755;61;1611;-82
2022/06/04 06:49:04;334360.00;1.11;576.98;37492.00;0.12;65.55;;;;;22.00;1.20;;;;;;2278379;61;1147;-81
2022/06/04 06:51:35;35688.00;0.12;62.43;0.00;0.00;0.62;;;;;21.60;3.40;;;;;;2278872;61;1107;-83
2022/06/04 06:54:03;209992.00;0.70;363.12;0.00;0.00;0.62;;;;;21.20;4.30;;;;;;2278740;61;1522;-82
2022/06/04 06:56:32;108264.00;0.36;187.83;0.00;0.00;0.62;;;;;21.00;5.10;;;;;;2279945;61;1931;-84
2022/06/04 06:59:01;0.00;0.00;0.62;0.00;0.00;0.62;;;;;20.60;5.90;;;;;;2280652;61;1467;-83
2022/06/04 07:01:29;60209.00;0.20;104.84;0.00;0.00;0.62;;;;;20.20;8.20;;;;;;2280551;61;1076;-84
2022/06/04 07:03:58;302816.00;1.01;522.76;3830.00;0.01;7.26;;;;;19.90;11.80;;;;;;2280729;61;1603;-85
2022/06/04 07:06:31;159295.00;0.53;275.82;0.00;0.00;0.62;;;;;19.80;12.00;;;;;;2280742;61;1380;-84
2022/06/04 07:08:59;500461.00;1.67;862.62;49301.00;0.16;85.98;;;;;19.90;11.80;;;;;;2280783;61;989;-85
2022/06/04 07:11:26;207946.00;0.69;359.60;1989.00;0.01;4.07;;;;;20.30;11.30;;;;;;2280768;61;1098;-84
2022/06/04 07:13:57;815194.00;2.72;1407.64;64683.00;0.22;112.57;;;;;20.40;10.70;;;;;;2280720;61;1253;-84
2022/06/04 07:16:29;762775.00;2.54;1316.28;111020.00;0.37;192.59;;;;;20.50;8.30;;;;;;2280717;61;1915;-85
2022/06/04 07:18:58;166157.00;0.55;287.65;0.00;0.00;0.62;;;;;21.00;6.90;;;;;;2280789;61;1488;-86
2022/06/04 07:21:25;164697.00;0.55;285.13;4205.00;0.01;7.91;;;;;21.80;6.60;;;;;;2280753;61;1559;-87
2022/06/04 07:23:54;276996.00;0.92;478.37;8331.00;0.03;15.06;;;;;22.30;3.60;;;;;;2280690;61;1651;-86
2022/06/04 07:26:23;108284.00;0.36;187.87;0.00;0.00;0.62;;;;;22.40;3.60;;;;;;2280850;61;1397;-83
2022/06/04 07:28:50;82813.00;0.28;143.90;0.00;0.00;0.62;;;;;22.70;2.10;;;;;;2280858;61;928;-84
2022/06/04 07:31:18;300638.00;1.00;519.02;2882.00;0.01;5.62;;;;;22.90;2.00;;;;;;2280906;61;852;-85
2022/06/04 07:33:50;158329.00;0.53;274.16;0.00;0.00;0.62;;;;;23.10;2.30;;;;;;2280831;61;1539;-86
2022/06/04 07:36:23;216421.00;0.72;374.19;0.00;0.00;0.62;;;;;23.20;2.10;;;;;;2280825;61;1918;-85
2022/06/04 07:38:53;148919.00;0.50;257.94;0.00;0.00;0.62;;;;;23.10;1.60;;;;;;2280818;61;1643;-85
2022/06/04 07:41:22;138425.00;0.46;239.86;0.00;0.00;0.62;;;;;23.20;1.00;;;;;;2280831;61;1122;-87
2022/06/04 07:43:49;96911.00;0.32;168.24;0.00;0.00;0.62;;;;;23.40;1.00;;;;;;2280689;61;1538;-86
2022/06/04 07:46:19;189498.00;0.63;327.84;0.00;0.00;0.62;;;;;23.50;1.00;;;;;;2280573;61;1653;-87
2022/06/04 07:48:47;33885.00;0.11;59.31;0.00;0.00;0.62;;;;;23.80;1.30;;;;;;2280755;61;962;-85
2022/06/04 07:51:15;50635.00;0.17;88.28;0.00;0.00;0.62;;;;;24.10;1.00;;;;;;2280678;61;903;-86
2022/06/04 07:53:44;98547.00;0.33;171.06;0.00;0.00;0.62;;;;;24.00;1.00;;;;;;2280136;61;1617;-86
2022/06/04 07:56:14;219496.00;0.73;379.48;27385.00;0.09;48.06;;;;;23.90;1.00;;;;;;2280063;61;2004;-85
2022/06/04 07:58:42;98511.00;0.33;171.00;0.00;0.00;0.62;;;;;24.00;1.20;;;;;;2280279;61;1376;-84
2022/06/04 08:01:14;66345.00;0.22;115.44;0.00;0.00;0.62;;;;;24.30;1.10;;;;;;2280617;61;1464;-85
2022/06/04 08:03:43;0.00;0.00;0.62;0.00;0.00;0.62;;;;;25.00;1.30;;;;;;2280644;61;1424;-86
2022/06/04 08:06:13;57129.00;0.19;99.51;0.00;0.00;0.62;;;;;25.60;1.00;;;;;;2280682;61;1587;-86
2022/06/04 08:08:40;84813.00;0.28;147.35;0.00;0.00;0.62;;;;;26.40;1.00;;;;;;2280717;61;1033;-84
2022/06/04 08:13:50;10758.00;0.04;19.26;0.00;0.00;0.62;;;;;26.20;1.00;;;;;;2280352;61;1114;-86
2022/06/04 08:16:17;2580.00;0.01;5.09;0.00;0.00;0.62;;;;;25.80;1.00;;;;;;2280474;61;2005;-87
2022/06/04 08:18:45;184920.00;0.62;319.96;0.00;0.00;0.62;;;;;25.60;1.00;;;;;;2280419;61;1653;-86
2022/06/04 08:21:12;185025.00;0.62;320.14;0.00;0.00;0.62;;;;;25.60;1.00;;;;;;2280324;61;1481;-87
2022/06/04 08:23:40;199649.00;0.67;345.32;61309.00;0.20;106.74;;;;;25.60;1.00;;;;;;2280297;61;1035;-84
2022/06/04 08:26:10;0.00;0.00;0.62;0.00;0.00;0.62;;;;;25.70;1.00;;;;;;2280182;61;1363;-84
2022/06/04 08:28:37;0.00;0.00;0.62;0.00;0.00;0.62;;;;;25.70;1.00;;;;;;2280184;61;1117;-84
2022/06/04 08:31:07;40021.00;0.13;69.92;0.00;0.00;0.62;;;;;25.80;1.00;;;;;;2280083;61;1722;-84
2022/06/04 08:33:34;0.00;0.00;0.62;0.00;0.00;0.62;;;;;25.90;1.00;;;;;;2280047;61;1051;-84
2022/06/04 08:36:01;42829.00;0.14;74.78;0.00;0.00;0.62;;;;;25.70;1.00;;;;;;2279759;61;1366;-85
2022/06/04 08:38:28;258016.00;0.86;445.74;33377.00;0.11;58.43;;;;;25.60;1.00;;;;;;2280165;61;2045;-85
2022/06/04 08:40:59;115700.00;0.39;200.66;0.00;0.00;0.62;;;;;26.30;1.00;;;;;;2280263;61;1057;-84
2022/06/04 08:43:40;21980.00;0.07;38.70;0.00;0.00;0.62;;;;;26.80;1.00;;;;;;2280003;61;1109;-85
2022/06/04 08:46:15;32430.00;0.11;56.79;0.00;0.00;0.62;;;;;27.20;1.00;;;;;;2280027;61;1364;-85
2022/06/04 08:48:45;6854.00;0.02;12.50;0.00;0.00;0.62;;;;;27.30;1.00;;;;;;2280463;61;1129;-86
2022/06/04 08:51:21;141397.00;0.47;244.98;0.00;0.00;0.62;;;;;27.80;1.00;;;;;;2280366;61;1069;-85
2022/06/04 08:53:52;0.00;0.00;0.62;0.00;0.00;0.62;;;;;28.30;1.00;;;;;;2280189;61;1132;-86
2022/06/04 08:59:24;0.00;0.00;0.62;0.00;0.00;0.62;;;;;28.90;1.00;;;;;;2279834;61;710;-86
2022/06/04 09:01:55;133465.00;0.44;231.30;0.00;0.00;0.62;;;;;29.30;1.00;;;;;;2280148;61;1066;-85
2022/06/04 09:04:48;252878.00;0.84;436.90;83887.00;0.28;145.75;;;;;29.50;1.00;;;;;;2280212;61;1398;-85
2022/06/04 09:07:18;21001.00;0.07;37.00;0.00;0.00;0.62;;;;;29.50;1.00;;;;;;2280151;61;1527;-85
2022/06/04 09:09:54;0.00;0.00;0.62;0.00;0.00;0.62;;;;;29.50;1.00;;;;;;2280137;61;1028;-85
2022/06/04 09:12:36;219341.00;0.73;379.21;0.00;0.00;0.62;;;;;29.30;1.00;;;;;;2280074;61;1145;-86
2022/06/04 09:15:12;0.00;0.00;0.62;0.00;0.00;0.62;;;;;29.30;1.00;;;;;;2279983;61;1473;-85
2022/06/04 09:17:43;0.00;0.00;0.62;0.00;0.00;0.62;;;;;29.20;1.00;;;;;;2279959;61;1996;-86
2022/06/04 09:20:27;32883.00;0.11;57.57;0.00;0.00;0.62;;;;;29.10;1.00;;;;;;2279956;61;1133;-85
2022/06/04 09:23:00;50051.00;0.17;87.27;0.00;0.00;0.62;;;;;28.80;1.00;;;;;;2280144;61;2159;-86
2022/06/04 09:25:46;110972.00;0.37;192.51;45665.00;0.15;79.69;;;;;28.90;1.00;;;;;;2280685;61;1685;-87
2022/06/04 09:28:28;34485.00;0.11;60.35;0.00;0.00;0.62;;;;;28.90;1.00;;;;;;2280638;61;1174;-86
2022/06/04 09:31:08;86611.00;0.29;150.46;0.00;0.00;0.62;;;;;28.80;1.00;;;;;;2280513;61;1117;-86
2022/06/04 09:33:48;65893.00;0.22;114.66;0.00;0.00;0.62;;;;;28.90;1.00;;;;;;2280588;61;1219;-86
2022/06/04 09:36:19;106298.00;0.35;184.44;0.00;0.00;0.62;;;;;28.90;1.00;;;;;;2280771;61;1500;-85
2022/06/04 09:38:54;3397284.00;11.32;6999.38;845311.00;2.82;1460.26;;;;;29.00;1.00;;;;;;2280902;61;2087;-86
2022/06/04 09:41:23;27983.00;0.09;49.09;0.00;0.00;0.62;;;;;29.40;1.00;;;;;;2280822;61;1078;-86
2022/06/04 09:44:01;685126.00;2.28;1181.45;247096.00;0.82;426.96;;;;;29.80;1.00;;;;;;2280988;61;1091;-86
2022/06/04 09:46:30;1079063.00;3.60;1873.02;209338.00;0.70;362.00;;;;;29.70;1.00;;;;;;2280804;61;1464;-86
2022/06/04 09:48:59;280149.00;0.93;483.79;33747.00;0.11;59.07;;;;;29.90;1.00;;;;;;2280845;61;1077;-85
2022/06/04 09:51:28;107705.00;0.36;186.87;0.00;0.00;0.62;;;;;30.00;1.00;;;;;;2280936;61;1168;-86
2022/06/04 09:54:02;231213.00;0.77;399.64;26475.00;0.09;46.48;;;;;29.80;1.00;;;;;;2280823;61;1146;-87
2022/06/04 09:56:36;134863.00;0.45;233.71;0.00;0.00;0.62;;;;;29.70;1.00;;;;;;2280846;61;1919;-87
2022/06/04 09:59:18;372214.00;1.24;642.04;94137.00;0.31;163.45;;;;;29.70;1.00;;;;;;2280891;61;1155;-84
2022/06/04 10:01:55;60199.00;0.20;104.82;0.00;0.00;0.62;;;;;29.40;1.00;;;;;;2280883;61;1156;-86
2022/06/04 10:04:24;1923963.00;6.41;3469.35;601524.00;2.01;1036.85;;;;;29.40;1.00;;;;;;2280749;61;1444;-87
2022/06/04 10:06:51;118935064.00;396.45;68151200.00;0.00;0.00;0.62;;;;;29.60;1.00;;;;;;2280856;61;1733;-86
2022/06/04 10:12:15;1184020.00;3.95;2061.35;133083.00;0.44;230.65;;;;;29.20;1.00;;;;;;2280613;61;604;-85
2022/06/04 10:14:45;1653680.00;5.51;2935.78;231240.00;0.77;399.68;;;;;29.30;1.00;;;;;;2280771;61;1375;-87
2022/06/04 10:17:19;259196.00;0.86;447.77;78717.00;0.26;136.82;;;;;29.80;1.00;;;;;;2280903;61;1919;-87
2022/06/04 10:19:52;250345.00;0.83;432.54;67487.00;0.22;117.42;;;;;29.80;1.00;;;;;;2280699;61;2165;-87
2022/06/04 10:22:19;189587.00;0.63;328.00;66189.00;0.22;115.17;;;;;29.90;1.00;;;;;;2280850;61;1137;-85
2022/06/04 10:24:51;250412.00;0.83;432.66;68889.00;0.23;119.84;;;;;30.20;1.00;;;;;;2280858;61;1365;-85
2022/06/04 10:27:33;347938.00;1.16;600.32;90868.00;0.30;157.81;;;;;30.10;1.00;;;;;;2280808;61;1074;-85
2022/06/04 10:30:16;189128.00;0.63;327.21;74832.00;0.25;130.11;;;;;30.10;1.00;;;;;;2280781;61;1122;-86
2022/06/04 10:33:05;256384.00;0.85;442.93;65984.00;0.22;114.82;;;;;30.20;1.00;;;;;;2280836;61;1047;-87
2022/06/04 10:35:51;1064437.00;3.55;1846.94;335007.00;1.12;578.09;;;;;30.20;1.00;;;;;;2280780;61;1497;-86
2022/06/04 10:38:27;617979.00;2.06;1065.27;86701.00;0.29;150.61;;;;;30.10;1.00;;;;;;2280766;61;1988;-86